x

Great Slave Lake (45141) Wave Buoy

9:00pm - Thu 29th Sep 2016 All times are UTC.

  • Sig Wave height 1.3ft
  • Peak Period 3s
  • Wind
    11mph, 13mph gusts
  • Sea Temp 50°f
  • Air Temp 47°f
  • Sea Pressure 1022mb

More Historic Weather Station data

Upgrade to MSW Pro to gain access to the past 30 days of data for over 8000 Wavebouys and Weather Stations around the globe.

Join Pro

Comparision Forecast

View Surf forecast
   
Thu 09/29 9:00pm 1.3ft 3s 11 13 mph 1022mb 50f 47f
8:00pm 1.3ft 3s 9 11 mph 1022mb 50f 46f
7:00pm 1.3ft 14s 9 11 mph 1021.9mb 50f 46f
6:00pm 1.3ft 14s 9 11 mph 1021.4mb 50f 45f
5:00pm  -   -  11
mph
1021mb 50f 46f
4:00pm 0.7ft 15s 9 11 mph 1020.9mb 50f 47f
3:00pm 1ft 15s 4
mph
1020.8mb 50f 46f
2:00pm 1.3ft 15s 4 7 mph 1020.9mb 49f 45f
1:00pm 1.6ft 14s 9 11 mph 1021mb 49f 44f
12:00pm 2ft 15s 9 11 mph 1021.1mb 50f 44f
11:00am 1.6ft 14s 13 16 mph 1021.1mb 50f 44f
10:00am 1ft 3s 11 13 mph 1021.8mb 50f 45f
9:00am 1ft 3s 11 13 mph 1022mb 50f 46f
8:00am 0.3ft 2s 7
mph
1022.4mb 50f 46f
7:00am 0.3ft 5s 4 9 mph 1022.4mb 50f 47f
6:00am 0.3ft 2s 7 9 mph 1022.7mb 49f 47f
5:00am 0.3ft 5s 9 11 mph 1023.1mb 50f 46f
4:00am 0.7ft 5s  -  2 mph 1023.1mb 49f 46f
3:00am 0.7ft 15s 4 7 mph 1023.2mb 49f 46f
2:00am 1ft 14s 4 7 mph 1023.2mb 50f 46f
1:00am 1.6ft 15s 4 7 mph 1023.3mb 50f 46f
12:00am 1.6ft 15s 7 9 mph 1023.6mb 50f 45f
Wed 09/28 11:00pm 2ft 3s 9 13 mph 1023.8mb 50f 45f
10:00pm 2.5ft 4s 11 13 mph 1023.9mb 50f 44f
8:00pm 3ft 15s 13 18 mph 1023.9mb 50f 41f
7:00pm 3ft 4s 13 20 mph 1023.5mb 50f 40f
6:00pm 3.5ft 4s 16 20 mph 1023.1mb 50f 40f
5:00pm 4ft 4s 20 25 mph 1022.7mb 50f 39f
4:00pm 4.5ft 5s 22 27 mph 1022mb 50f 38f
3:00pm  -   -  25
mph
- - -
12:00pm 6ft 6s 27 34 mph 1018.5mb 50f 40f
11:00am 6.5ft 6s 27 36 mph 1017.6mb 50f 41f
10:00am 7ft 5s 31 38 mph 1016.4mb 50f 42f
8:00am 7ft 6s 31 38 mph 1014.3mb 50f 43f
7:00am  -   -  31
mph
- - -
5:00am 7.5ft 6s 34
mph
1011.2mb 50f 45f
4:00am 8ft 6s 34 43 mph 1010.2mb 50f 45f
3:00am 9ft 6s 36 47 mph 1008.9mb 50f 46f
1:00am 8ft 7s 38 47 mph 1006.7mb 51f 45f
12:00am 8ft 6s 36 47 mph 1004.9mb 51f 44f
Tue 09/27 11:00pm 7ft 6s 34 40 mph 1004mb 51f 44f
10:00pm 7ft 6s 34 40 mph 1003mb 51f 43f
9:00pm 7ft 6s 31 40 mph 1002.4mb 51f 43f
8:00pm  -   -  31
mph
1001.9mb 51f 45f
7:00pm 6ft 5s 31 38 mph 1001.2mb 52f 47f
4:00pm 5ft 5s 29 34 mph 999.5mb 52f 48f
3:00pm 5ft 6s 27 31 mph 999.2mb 52f 48f
2:00pm 5ft 5s 29 34 mph 999mb 52f 49f
1:00pm 5ft 5s 27 34 mph 998.3mb 52f 49f
12:00pm 4ft 4s 25 29 mph 997.5mb 52f 50f
10:00am 2ft 5s 18 25 mph 996.6mb 52f 52f
9:00am 2.5ft 5s 9 11 mph 996.3mb 52f 53f
8:00am 2.5ft 5s 11 13 mph 995.8mb 52f 53f
7:00am 2.5ft 5s 16 18 mph 996.1mb 52f 53f
6:00am 3ft 5s 11 13 mph 997.1mb 52f 53f
5:00am 3.5ft 5s 18 20 mph 997.7mb 52f 53f
4:00am 3.5ft 5s 18 20 mph 999mb 52f 53f
3:00am 3.5ft 5s 18 22 mph 1000.2mb 52f 52f
2:00am 3.5ft 5s 18 22 mph 1001.5mb 52f 52f
1:00am 3.5ft 5s 16 20 mph 1002.7mb 52f 52f
12:00am 4ft 5s 18 22 mph 1003.2mb 52f 52f
Mon 09/26 11:00pm 4.5ft 5s 18 22 mph 1003.9mb 52f 51f
10:00pm 4ft 5s 20 25 mph 1004.5mb 52f 51f
9:00pm 4.5ft 5s 22 25 mph 1005.4mb 52f 51f
8:00pm 4.5ft 5s 22 27 mph 1006.1mb 52f 50f
7:00pm 4.5ft 5s 25 27 mph 1006.5mb 52f 49f
5:00pm 4.5ft 5s 22 27 mph 1008.5mb 52f 50f
4:00pm 4ft 5s 20
mph
1009.3mb 52f 49f
3:00pm 4.5ft 4s 20
mph
1009.9mb 52f 49f
2:00pm 4.5ft 5s 20 22 mph 1010.2mb 52f 49f
1:00pm 4.5ft 5s 20 25 mph 1011mb 52f 50f
12:00pm 4ft 4s 22 27 mph 1011.8mb 52f 51f
11:00am 4ft 4s 22 25 mph 1012.3mb 52f 51f
10:00am 3.5ft 4s 20 25 mph 1012.9mb 52f 52f
9:00am 3.5ft 4s 22 25 mph 1013.7mb 52f 52f
8:00am 3ft 4s 18 22 mph 1014.3mb 52f 52f
7:00am 2.5ft 3s 18 22 mph 1015mb 52f 53f
6:00am 2.5ft 15s 16 20 mph 1015.6mb 52f 53f
5:00am 2ft 14s 18 22 mph 1016.5mb 53f 53f
4:00am 1.6ft 15s 16 18 mph 1016.3mb 53f 53f
3:00am 1ft 15s 13 16 mph 1016.6mb 53f 53f
2:00am 0.7ft 2s 13 16 mph 1016.7mb 53f 53f
1:00am 0.3ft 2s 13
mph
1017.2mb 53f 53f
12:00am 0.3ft 4s 9 11 mph 1017.6mb 53f 53f
Sun 09/25 11:00pm 0.7ft 3s 7
mph
1017.9mb 53f 53f